Time;durP1;ratioP1;P1;durP2;ratioP2;P2;SDS_P1;SDS_P2;PMS_P1;PMS_P2;Temp;Humidity;BMP_temperature;BMP_pressure;BME280_temperature;BME280_humidity;BME280_pressure;Samples;Min_cycle;Max_cycle;Signal;HPM_P1;HPM_P2
2022/12/24 00:01:23;;;;;;;2.90;1.03;;;;;;;10.02;100.00;153931.88;5058711;28;20541;-85
2022/12/24 00:04:09;;;;;;;1.50;1.00;;;;;;;10.01;100.00;153930.56;5050050;28;20579;-85
2022/12/24 00:06:54;;;;;;;3.53;1.23;;;;;;;10.00;100.00;153926.69;5049308;28;20824;-86
2022/12/24 00:09:39;;;;;;;3.93;1.43;;;;;;;9.98;100.00;153921.53;5038263;28;20440;-86
2022/12/24 00:12:25;;;;;;;4.20;1.20;;;;;;;9.95;100.00;153915.06;5044159;28;20515;-86
2022/12/24 00:15:11;;;;;;;3.13;1.27;;;;;;;10.05;100.00;153939.63;5049090;28;20541;-86
2022/12/24 00:17:58;;;;;;;2.07;1.20;;;;;;;10.07;100.00;153944.81;5050658;28;20562;-85
2022/12/24 00:20:46;;;;;;;4.63;1.40;;;;;;;10.04;100.00;153938.34;5044482;28;20447;-85
2022/12/24 00:23:32;;;;;;;3.27;1.23;;;;;;;10.03;100.00;153934.47;5037107;28;20464;-85
2022/12/24 00:26:17;;;;;;;2.53;1.50;;;;;;;10.01;100.00;153930.56;5047201;28;20451;-85
2022/12/24 00:29:02;;;;;;;2.77;1.60;;;;;;;10.01;100.00;153929.25;5052474;28;20945;-85
2022/12/24 00:31:48;;;;;;;1.97;1.00;;;;;;;10.02;100.00;153931.88;5048560;28;20807;-85
2022/12/24 00:34:35;;;;;;;2.03;1.33;;;;;;;9.99;100.00;153925.38;5047964;28;20443;-85
2022/12/24 00:37:20;;;;;;;2.90;1.10;;;;;;;9.98;100.00;153922.78;5055697;28;20463;-85
2022/12/24 00:40:07;;;;;;;3.97;1.43;;;;;;;9.99;100.00;153924.09;5055490;28;20440;-85
2022/12/24 00:42:52;;;;;;;3.20;1.57;;;;;;;10.00;100.00;153928.00;5050804;28;20450;-85
2022/12/24 00:45:37;;;;;;;3.30;1.20;;;;;;;9.97;100.00;153918.91;5052215;28;20789;-85
2022/12/24 00:48:22;;;;;;;3.10;1.60;;;;;;;9.97;100.00;153918.91;5053933;28;20521;-85
2022/12/24 00:51:09;;;;;;;3.13;1.63;;;;;;;9.93;100.00;153909.84;5050400;28;20443;-85
2022/12/24 00:53:55;;;;;;;2.40;1.40;;;;;;;9.91;100.00;153904.69;5052999;28;20535;-85
2022/12/24 00:56:40;;;;;;;2.33;1.00;;;;;;;9.89;100.00;153898.22;5045608;28;20593;-85
2022/12/24 00:59:26;;;;;;;2.90;1.53;;;;;;;9.89;100.00;153899.53;5052903;28;20472;-85
2022/12/24 01:02:11;;;;;;;5.90;1.67;;;;;;;9.89;100.00;153899.53;5048117;28;20455;-85
2022/12/24 01:05:11;;;;;;;2.80;1.20;;;;;;;9.84;100.00;153885.28;5053351;28;20594;-85
2022/12/24 01:07:58;;;;;;;4.10;1.40;;;;;;;9.84;100.00;153886.59;5051769;28;20443;-85
2022/12/24 01:10:43;;;;;;;3.73;1.20;;;;;;;9.83;100.00;153883.97;5047130;28;20439;-85
2022/12/24 01:13:28;;;;;;;5.00;1.40;;;;;;;9.79;100.00;153874.91;5053922;28;20447;-85
2022/12/24 01:16:15;;;;;;;5.17;1.37;;;;;;;9.78;100.00;153872.34;5052387;28;20941;-84
2022/12/24 01:19:00;;;;;;;3.40;1.20;;;;;;;9.78;100.00;153872.34;5049284;28;20609;-84
2022/12/24 01:21:46;;;;;;;5.03;1.73;;;;;;;9.80;100.00;153876.22;5052540;28;20549;-85
2022/12/24 01:24:33;;;;;;;1.93;1.10;;;;;;;9.80;100.00;153877.50;5054684;28;20443;-84
2022/12/24 01:27:18;;;;;;;2.47;0.90;;;;;;;9.82;100.00;153882.69;5065248;28;20826;-84
2022/12/24 01:30:04;;;;;;;5.43;1.60;;;;;;;9.80;100.00;153877.50;5049766;28;20564;-84
2022/12/24 01:32:49;;;;;;;3.37;1.17;;;;;;;9.85;100.00;153887.88;5052694;28;20495;-84
2022/12/24 01:35:35;;;;;;;2.50;1.17;;;;;;;9.86;100.00;153891.75;5051408;28;20560;-84
2022/12/24 01:38:20;;;;;;;2.37;1.10;;;;;;;9.85;100.00;153889.16;5047621;28;20467;-84
2022/12/24 01:44:26;;;;;;;2.90;1.00;;;;;;;9.88;100.00;153895.59;5036156;28;21042;-84
2022/12/24 01:47:14;;;;;;;4.70;1.40;;;;;;;9.87;100.00;153894.34;5052224;28;21094;-85
2022/12/24 01:50:00;;;;;;;3.60;1.70;;;;;;;9.85;100.00;153887.88;5052125;28;20440;-85
2022/12/24 01:52:45;;;;;;;2.80;1.20;;;;;;;9.84;100.00;153886.59;5054094;28;20431;-84
2022/12/24 01:55:31;;;;;;;4.27;1.47;;;;;;;9.82;100.00;153882.69;5048813;28;20514;-84
2022/12/24 01:58:18;;;;;;;6.87;1.73;;;;;;;9.84;100.00;153885.28;5033938;28;20460;-85
2022/12/24 02:01:04;;;;;;;3.40;1.50;;;;;;;9.89;100.00;153899.53;5051634;28;20432;-84
2022/12/24 02:03:49;;;;;;;2.90;1.63;;;;;;;9.87;100.00;153893.06;5052389;28;20463;-84
2022/12/24 02:06:34;;;;;;;4.60;2.00;;;;;;;9.84;100.00;153886.59;5051477;28;20551;-85
2022/12/24 02:09:20;;;;;;;3.87;1.47;;;;;;;9.76;100.00;153867.19;5052530;28;20590;-85
2022/12/24 02:12:06;;;;;;;6.20;2.77;;;;;;;9.75;100.00;153863.28;5050253;28;20451;-84
2022/12/24 02:14:53;;;;;;;3.90;2.00;;;;;;;9.77;100.00;153869.75;5053706;28;20408;-84
2022/12/24 02:17:43;;;;;;;3.67;2.03;;;;;;;9.74;100.00;153861.97;5049854;28;20447;-84
2022/12/24 02:21:10;;;;;;;4.00;1.20;;;;;;;9.71;100.00;153852.94;5049475;28;20570;-85
2022/12/24 02:24:30;;;;;;;4.87;1.87;;;;;;;9.71;100.00;153854.25;5011078;28;20421;-84
2022/12/24 02:27:24;;;;;;;5.70;1.70;;;;;;;9.69;100.00;153849.03;5009839;28;20983;-84
2022/12/24 02:30:17;;;;;;;6.63;1.60;;;;;;;9.68;100.00;153845.16;5045875;28;20484;-84
2022/12/24 02:33:17;;;;;;;4.63;1.83;;;;;;;9.63;100.00;153832.25;5053105;28;20428;-84
2022/12/24 02:36:07;;;;;;;3.43;1.60;;;;;;;9.58;100.00;153820.56;5051685;28;20593;-85
2022/12/24 02:38:57;;;;;;;6.20;1.87;;;;;;;9.61;100.00;153828.34;5049807;28;20998;-84
2022/12/24 02:45:02;;;;;;;3.33;1.40;;;;;;;9.61;100.00;153828.34;5033214;28;20530;-84
2022/12/24 02:47:49;;;;;;;2.77;1.50;;;;;;;9.61;100.00;153828.34;5051187;28;20448;-84
2022/12/24 02:50:35;;;;;;;6.23;1.80;;;;;;;9.63;100.00;153833.53;5042903;28;20412;-84
2022/12/24 02:53:20;;;;;;;4.00;1.67;;;;;;;9.60;100.00;153825.78;5053119;28;20504;-85
2022/12/24 02:56:20;;;;;;;2.43;1.40;;;;;;;9.56;100.00;153814.09;5038723;28;20785;-84
2022/12/24 02:59:27;;;;;;;3.80;1.80;;;;;;;9.52;100.00;153805.06;5046136;28;20464;-84
2022/12/24 03:02:20;;;;;;;3.83;1.33;;;;;;;9.47;100.00;153792.13;5033501;28;20538;-84
2022/12/24 03:05:12;;;;;;;4.13;2.20;;;;;;;9.44;100.00;153783.06;5032960;28;20483;-84
2022/12/24 03:08:02;;;;;;;3.17;2.10;;;;;;;9.40;100.00;153774.00;5049017;28;20459;-84
2022/12/24 03:10:54;;;;;;;2.40;1.20;;;;;;;9.38;100.00;153768.84;5050775;28;20463;-84
2022/12/24 03:13:41;;;;;;;6.37;1.63;;;;;;;9.37;100.00;153766.22;5042097;28;20947;-84
2022/12/24 03:16:28;;;;;;;3.63;1.83;;;;;;;9.39;100.00;153771.44;5040735;28;20453;-84
2022/12/24 03:19:13;;;;;;;2.17;1.30;;;;;;;9.36;100.00;153762.38;5044070;28;20463;-84
2022/12/24 03:22:02;;;;;;;5.33;2.20;;;;;;;9.35;100.00;153761.06;5051901;28;20443;-84
2022/12/24 03:24:48;;;;;;;5.60;1.97;;;;;;;9.35;100.00;153761.06;5049346;28;20593;-84
2022/12/24 03:27:34;;;;;;;6.07;2.10;;;;;;;9.37;100.00;153764.97;5051084;28;20431;-84
2022/12/24 03:30:20;;;;;;;3.50;1.97;;;;;;;9.37;100.00;153764.97;5049846;28;20556;-84
2022/12/24 03:33:05;;;;;;;2.37;1.40;;;;;;;9.34;100.00;153758.50;5049510;28;20556;-84
2022/12/24 03:35:50;;;;;;;4.90;2.40;;;;;;;9.31;100.00;153750.75;5052287;28;20420;-85
2022/12/24 03:38:37;;;;;;;2.57;1.50;;;;;;;9.25;100.00;153733.91;5053128;28;20450;-85
2022/12/24 03:41:23;;;;;;;4.67;1.90;;;;;;;9.23;100.00;153728.75;5050649;28;20498;-84
2022/12/24 03:44:08;;;;;;;5.50;1.90;;;;;;;9.22;100.00;153727.44;5051703;28;20435;-84
2022/12/24 03:46:54;;;;;;;3.47;1.53;;;;;;;9.21;100.00;153724.88;5050640;28;21016;-84
2022/12/24 03:49:39;;;;;;;3.30;1.67;;;;;;;9.27;100.00;153740.38;5045569;28;20922;-84
2022/12/24 03:52:24;;;;;;;4.20;2.00;;;;;;;9.24;100.00;153732.59;5048908;28;20454;-84
2022/12/24 03:55:11;;;;;;;2.20;1.47;;;;;;;9.23;100.00;153730.03;5041831;28;20815;-84
2022/12/24 03:57:57;;;;;;;3.97;1.90;;;;;;;9.21;100.00;153724.88;5051806;28;20462;-84
2022/12/24 04:00:42;;;;;;;2.43;1.30;;;;;;;9.22;100.00;153727.44;5046074;28;20431;-85
2022/12/24 04:03:27;;;;;;;4.77;1.90;;;;;;;9.21;100.00;153723.59;5049562;28;20435;-84
2022/12/24 04:06:16;;;;;;;8.50;1.90;;;;;;;9.24;100.00;153732.59;5049005;28;20451;-84
2022/12/24 04:09:03;;;;;;;6.17;2.03;;;;;;;9.26;100.00;153737.81;5047483;28;20440;-84
2022/12/24 04:11:50;;;;;;;7.30;2.30;;;;;;;9.26;100.00;153736.50;5049398;28;20525;-84
2022/12/24 04:14:35;;;;;;;4.60;1.50;;;;;;;9.26;100.00;153737.81;5050975;28;20423;-84
2022/12/24 04:17:21;;;;;;;3.93;1.70;;;;;;;9.23;100.00;153730.03;5031886;28;20431;-84
2022/12/24 04:20:07;;;;;;;5.20;1.80;;;;;;;9.24;100.00;153731.34;5044427;28;20460;-84
2022/12/24 04:22:53;;;;;;;3.90;1.63;;;;;;;9.21;100.00;153723.59;5032023;28;21026;-84
2022/12/24 04:25:38;;;;;;;3.83;1.97;;;;;;;9.19;100.00;153720.97;5046998;28;20448;-84
2022/12/24 04:28:25;;;;;;;2.90;1.87;;;;;;;9.23;100.00;153730.03;5050118;28;20459;-83
2022/12/24 04:31:12;;;;;;;3.70;2.10;;;;;;;9.19;100.00;153720.97;5044611;28;20408;-84
2022/12/24 04:33:57;;;;;;;6.13;1.80;;;;;;;9.16;100.00;153711.91;5041646;28;20579;-84
2022/12/24 04:36:42;;;;;;;5.30;1.83;;;;;;;9.16;100.00;153711.91;5050150;28;20454;-84
2022/12/24 04:39:28;;;;;;;3.20;1.67;;;;;;;9.17;100.00;153714.50;5051123;28;20463;-84
2022/12/24 04:42:13;;;;;;;3.97;1.67;;;;;;;9.15;100.00;153710.66;5036660;28;20448;-84
2022/12/24 04:45:00;;;;;;;2.67;1.40;;;;;;;9.17;100.00;153715.81;5035894;28;20435;-84
2022/12/24 04:47:45;;;;;;;4.23;1.73;;;;;;;9.14;100.00;153706.75;5048414;28;20450;-84
2022/12/24 04:50:31;;;;;;;6.77;2.10;;;;;;;9.08;100.00;153692.50;5051428;28;20609;-84
2022/12/24 04:53:16;;;;;;;3.03;1.50;;;;;;;9.03;100.00;153678.28;5034261;28;20973;-84
2022/12/24 04:56:02;;;;;;;3.30;1.63;;;;;;;9.03;100.00;153678.28;5048972;28;20517;-84
2022/12/24 04:58:48;;;;;;;3.40;1.70;;;;;;;8.99;100.00;153669.25;5047841;28;20501;-84
2022/12/24 05:01:35;;;;;;;3.70;1.43;;;;;;;8.98;100.00;153666.66;5045413;28;20498;-84
2022/12/24 05:04:20;;;;;;;2.90;1.30;;;;;;;8.96;100.00;153661.50;5049182;28;20427;-84
2022/12/24 05:07:05;;;;;;;3.67;1.30;;;;;;;8.95;100.00;153657.59;5044211;28;20575;-84
2022/12/24 05:09:51;;;;;;;5.70;2.10;;;;;;;8.95;100.00;153657.59;5036878;28;20455;-84
2022/12/24 05:12:36;;;;;;;3.90;1.60;;;;;;;8.96;100.00;153661.50;5051685;28;20448;-84
2022/12/24 05:15:22;;;;;;;3.03;1.80;;;;;;;8.95;100.00;153657.59;5043973;28;20511;-84
2022/12/24 05:18:08;;;;;;;3.60;1.90;;;;;;;8.97;100.00;153662.81;5040439;28;20439;-85
2022/12/24 05:20:54;;;;;;;3.20;1.50;;;;;;;8.94;100.00;153655.03;5053356;28;20431;-84
2022/12/24 05:26:44;;;;;;;2.40;1.37;;;;;;;8.93;100.00;153652.44;5043369;28;20454;-84
2022/12/24 05:29:29;;;;;;;2.27;1.50;;;;;;;8.94;100.00;153655.03;5051937;28;21113;-84
2022/12/24 05:32:14;;;;;;;4.53;1.57;;;;;;;8.93;100.00;153652.44;5045558;28;20787;-84
2022/12/24 05:35:01;;;;;;;3.43;1.67;;;;;;;8.92;100.00;153649.88;5053639;28;20831;-84
2022/12/24 05:37:46;;;;;;;3.50;1.67;;;;;;;8.92;100.00;153649.88;5053385;28;20447;-84
2022/12/24 05:40:31;;;;;;;7.27;2.00;;;;;;;8.94;100.00;153655.03;5053151;28;20510;-84
2022/12/24 05:43:17;;;;;;;3.70;1.40;;;;;;;8.90;100.00;153645.97;5053090;28;20943;-84
2022/12/24 05:46:05;;;;;;;5.73;1.63;;;;;;;8.91;100.00;153647.28;5043744;28;20493;-84
2022/12/24 05:48:52;;;;;;;4.67;2.20;;;;;;;8.89;100.00;153642.13;5066007;28;20968;-84
2022/12/24 05:51:40;;;;;;;4.53;1.50;;;;;;;8.85;100.00;153631.75;5065916;28;20448;-84
2022/12/24 05:54:25;;;;;;;3.90;1.53;;;;;;;8.84;100.00;153629.19;5052207;28;21011;-84
2022/12/24 05:57:10;;;;;;;4.83;1.63;;;;;;;8.85;100.00;153631.75;5054083;28;20431;-84
2022/12/24 05:59:56;;;;;;;3.60;2.20;;;;;;;8.81;100.00;153622.72;5056936;28;20471;-84
2022/12/24 06:02:41;;;;;;;6.03;2.50;;;;;;;8.78;100.00;153613.66;5060055;28;20568;-83
2022/12/24 06:05:26;;;;;;;5.47;1.70;;;;;;;8.76;100.00;153608.50;5043574;28;20444;-83
2022/12/24 06:08:13;;;;;;;2.20;1.43;;;;;;;8.75;100.00;153607.19;5064608;28;20459;-84
2022/12/24 06:11:00;;;;;;;3.87;1.87;;;;;;;8.73;100.00;153600.72;5051067;28;20522;-85
2022/12/24 06:13:46;;;;;;;4.03;2.00;;;;;;;8.71;100.00;153595.56;5051620;28;20455;-85
2022/12/24 06:16:31;;;;;;;2.63;1.73;;;;;;;8.72;100.00;153598.13;5053926;28;20426;-84
2022/12/24 06:19:17;;;;;;;4.90;1.50;;;;;;;8.70;100.00;153592.97;5050564;28;20549;-84
2022/12/24 06:22:02;;;;;;;4.53;1.90;;;;;;;8.68;100.00;153587.81;5051301;28;20454;-84
2022/12/24 06:24:49;;;;;;;2.60;1.50;;;;;;;8.67;100.00;153585.22;5049504;28;20443;-84
2022/12/24 06:27:34;;;;;;;3.10;1.77;;;;;;;8.68;100.00;153587.81;5053521;28;20440;-84
2022/12/24 06:30:19;;;;;;;7.57;2.17;;;;;;;8.65;100.00;153580.03;5051842;28;20602;-84
2022/12/24 06:33:05;;;;;;;4.83;2.00;;;;;;;8.63;100.00;153574.88;5052948;28;20530;-85
2022/12/24 06:35:50;;;;;;;4.70;2.20;;;;;;;8.62;100.00;153572.28;5054337;28;20880;-84
2022/12/24 06:38:36;;;;;;;3.67;1.73;;;;;;;8.63;100.00;153574.88;5032924;28;20514;-84
2022/12/24 06:41:23;;;;;;;3.23;2.23;;;;;;;8.59;100.00;153565.81;5044359;28;20811;-84
2022/12/24 06:44:08;;;;;;;5.83;1.70;;;;;;;8.57;100.00;153561.97;5049204;28;20774;-84
2022/12/24 06:46:54;;;;;;;4.93;1.53;;;;;;;8.57;100.00;153560.66;5052907;28;20646;-84
2022/12/24 06:49:39;;;;;;;2.80;1.90;;;;;;;8.57;100.00;153560.66;5051919;28;20452;-83
2022/12/24 06:52:25;;;;;;;3.37;2.00;;;;;;;8.56;100.00;153559.38;5051967;28;20490;-84
2022/12/24 06:55:10;;;;;;;4.70;1.97;;;;;;;8.51;100.00;153546.44;5052431;28;20414;-84
2022/12/24 06:57:57;;;;;;;3.93;2.03;;;;;;;8.53;100.00;153551.59;5049502;28;20454;-85
2022/12/24 07:00:42;;;;;;;7.00;1.70;;;;;;;8.52;100.00;153549.00;5049975;28;20462;-85
2022/12/24 07:03:27;;;;;;;5.17;2.43;;;;;;;8.55;100.00;153556.75;5049031;28;20594;-83
2022/12/24 07:06:18;;;;;;;5.27;2.43;;;;;;;8.55;100.00;153556.75;5051944;28;20948;-85
2022/12/24 07:09:03;;;;;;;2.90;1.73;;;;;;;8.57;100.00;153560.66;5040689;28;20435;-85
2022/12/24 07:11:48;;;;;;;4.20;2.07;;;;;;;8.60;100.00;153567.13;5049197;28;20467;-83
2022/12/24 07:14:35;;;;;;;4.43;2.00;;;;;;;8.61;100.00;153569.69;5042057;28;20432;-84
2022/12/24 07:17:21;;;;;;;4.80;1.80;;;;;;;8.62;100.00;153572.28;5049638;28;20470;-85
2022/12/24 07:20:08;;;;;;;5.60;1.80;;;;;;;8.63;100.00;153574.88;5052277;28;20595;-86
2022/12/24 07:22:54;;;;;;;5.60;2.17;;;;;;;8.62;100.00;153573.59;5050926;28;20482;-85
2022/12/24 07:25:42;;;;;;;6.47;2.00;;;;;;;8.63;100.00;153574.88;5052473;28;20790;-85
2022/12/24 07:28:27;;;;;;;4.70;2.27;;;;;;;8.65;100.00;153580.03;5051693;28;20501;-85
2022/12/24 07:31:14;;;;;;;3.83;2.23;;;;;;;8.63;100.00;153574.88;5047190;28;20447;-85
2022/12/24 07:33:59;;;;;;;6.40;1.90;;;;;;;8.65;100.00;153580.03;5046270;28;20474;-85
2022/12/24 07:36:44;;;;;;;2.50;1.77;;;;;;;8.66;100.00;153582.66;5043747;28;20446;-85
2022/12/24 07:39:30;;;;;;;3.37;1.83;;;;;;;8.64;100.00;153578.75;5048186;28;20460;-85
2022/12/24 07:42:15;;;;;;;3.90;2.70;;;;;;;8.63;100.00;153576.13;5048938;28;20500;-85
2022/12/24 07:45:00;;;;;;;6.50;2.70;;;;;;;8.64;100.00;153577.44;5049340;28;20962;-85
2022/12/24 07:47:47;;;;;;;8.20;3.57;;;;;;;8.64;100.00;153577.44;5045928;28;21030;-85
2022/12/24 07:50:32;;;;;;;6.10;2.43;;;;;;;8.66;100.00;153582.66;5051387;28;20445;-85
2022/12/24 07:53:18;;;;;;;5.53;2.80;;;;;;;8.67;100.00;153585.22;5051521;28;20431;-85
2022/12/24 07:56:03;;;;;;;3.73;2.10;;;;;;;8.69;100.00;153590.38;5051966;28;20806;-85
2022/12/24 07:58:50;;;;;;;4.07;2.90;;;;;;;8.73;100.00;153600.72;5049612;28;20434;-85
2022/12/24 08:01:35;;;;;;;6.10;1.80;;;;;;;8.74;100.00;153603.28;5045760;28;20479;-85
2022/12/24 08:04:22;;;;;;;5.43;2.03;;;;;;;8.74;100.00;153603.28;5048030;28;20436;-85
2022/12/24 08:07:07;;;;;;;8.03;2.10;;;;;;;8.76;100.00;153608.50;5032480;28;20478;-85
2022/12/24 08:09:52;;;;;;;5.87;2.03;;;;;;;8.75;100.00;153605.91;5048527;28;20826;-85
2022/12/24 08:12:38;;;;;;;5.00;2.37;;;;;;;8.76;100.00;153608.50;5051086;28;20566;-85
2022/12/24 08:15:23;;;;;;;5.47;1.83;;;;;;;8.73;100.00;153600.72;5051787;28;20917;-85
2022/12/24 08:18:09;;;;;;;4.73;1.90;;;;;;;8.76;100.00;153608.50;5039701;28;20615;-85
2022/12/24 08:20:56;;;;;;;4.77;2.30;;;;;;;8.79;100.00;153617.50;5051322;28;20455;-85
2022/12/24 08:23:41;;;;;;;4.50;2.17;;;;;;;8.79;100.00;153616.25;5032399;28;20456;-85
2022/12/24 08:26:26;;;;;;;4.00;2.30;;;;;;;8.79;100.00;153617.50;5051862;28;20435;-85
2022/12/24 08:29:12;;;;;;;8.50;3.80;;;;;;;8.79;100.00;153616.25;5048683;28;20615;-85
2022/12/24 08:31:57;;;;;;;14.57;8.00;;;;;;;8.81;100.00;153621.41;5052551;28;20568;-85
2022/12/24 08:34:42;;;;;;;7.60;4.90;;;;;;;8.81;100.00;153621.41;5049840;28;20930;-85
2022/12/24 08:37:29;;;;;;;9.33;7.10;;;;;;;8.86;100.00;153634.34;5047716;28;20518;-85
2022/12/24 08:40:15;;;;;;;15.90;11.07;;;;;;;8.84;100.00;153629.19;5048055;28;20471;-85
2022/12/24 08:43:01;;;;;;;8.70;5.17;;;;;;;8.85;100.00;153633.03;5055092;28;21039;-85
2022/12/24 08:45:48;;;;;;;6.30;3.67;;;;;;;8.89;100.00;153642.13;5059103;28;20438;-85
2022/12/24 08:48:34;;;;;;;6.20;4.00;;;;;;;8.86;100.00;153634.34;5057469;28;20430;-85
2022/12/24 08:51:19;;;;;;;10.03;5.90;;;;;;;8.87;100.00;153636.94;5052400;28;20578;-85
2022/12/24 08:54:06;;;;;;;9.33;6.53;;;;;;;8.88;100.00;153640.81;5052851;28;20943;-85
2022/12/24 08:56:51;;;;;;;6.20;3.27;;;;;;;8.91;100.00;153647.28;5049473;28;20990;-85
2022/12/24 08:59:36;;;;;;;3.17;2.17;;;;;;;8.89;100.00;153643.41;5052903;28;20517;-85
2022/12/24 09:02:22;;;;;;;4.57;2.20;;;;;;;8.88;100.00;153640.81;5053317;28;20570;-85
2022/12/24 09:05:07;;;;;;;3.93;1.77;;;;;;;8.88;100.00;153639.50;5052227;28;20590;-85
2022/12/24 09:07:53;;;;;;;3.73;2.00;;;;;;;8.84;100.00;153630.44;5048656;28;20463;-85
2022/12/24 09:10:40;;;;;;;11.00;2.70;;;;;;;8.84;100.00;153630.44;5053333;28;20475;-85
2022/12/24 09:13:25;;;;;;;2.90;1.83;;;;;;;8.88;100.00;153640.81;5052761;28;20451;-85
2022/12/24 09:16:10;;;;;;;5.20;1.73;;;;;;;8.91;100.00;153648.56;5053341;28;20897;-85
2022/12/24 09:18:56;;;;;;;4.57;2.70;;;;;;;8.98;100.00;153666.66;5051303;28;20447;-85
2022/12/24 09:21:42;;;;;;;4.03;3.13;;;;;;;9.01;100.00;153673.13;5052933;28;20479;-85
2022/12/24 09:24:27;;;;;;;4.57;2.93;;;;;;;9.04;100.00;153680.88;5050267;28;22304;-85
2022/12/24 09:27:14;;;;;;;9.20;4.37;;;;;;;9.08;100.00;153691.25;5053829;28;20883;-85
2022/12/24 09:29:59;;;;;;;5.77;3.30;;;;;;;9.12;100.00;153701.59;5047953;28;20498;-85
2022/12/24 09:32:45;;;;;;;7.47;3.30;;;;;;;9.15;100.00;153710.66;5050808;28;20430;-84
2022/12/24 09:35:30;;;;;;;5.47;3.73;;;;;;;9.18;100.00;153718.41;5052723;28;20489;-85
2022/12/24 09:38:15;;;;;;;5.73;2.60;;;;;;;9.23;100.00;153730.03;5052629;28;20451;-85
2022/12/24 09:41:01;;;;;;;6.67;3.10;;;;;;;9.26;100.00;153736.50;5052760;28;20466;-85
2022/12/24 09:43:53;;;;;;;8.30;3.53;;;;;;;9.26;100.00;153737.81;5034415;28;20404;-85
2022/12/24 09:46:41;;;;;;;6.50;3.30;;;;;;;9.23;100.00;153730.03;5043976;28;20455;-85
2022/12/24 09:49:31;;;;;;;5.13;3.00;;;;;;;9.24;100.00;153731.34;5052887;28;20454;-85
2022/12/24 09:52:23;;;;;;;5.83;2.30;;;;;;;9.18;100.00;153717.13;5038950;28;20525;-85
2022/12/24 09:55:23;;;;;;;3.90;2.63;;;;;;;9.18;100.00;153717.13;5049523;28;20440;-85
2022/12/24 09:58:16;;;;;;;6.37;2.10;;;;;;;9.16;100.00;153711.91;5048311;28;20478;-85
2022/12/24 10:01:03;;;;;;;5.40;2.50;;;;;;;9.18;100.00;153718.41;5052036;28;20592;-85
2022/12/24 10:03:49;;;;;;;5.80;2.97;;;;;;;9.19;100.00;153719.69;5059565;28;20451;-85
2022/12/24 10:06:38;;;;;;;7.40;2.93;;;;;;;9.22;100.00;153726.13;5052236;28;21453;-85
2022/12/24 10:09:32;;;;;;;5.90;2.90;;;;;;;9.28;100.00;153741.69;5051768;28;20457;-85
2022/12/24 10:12:20;;;;;;;7.03;3.10;;;;;;;9.38;100.00;153768.84;5049594;28;20462;-86
2022/12/24 10:15:13;;;;;;;9.60;3.13;;;;;;;9.44;100.00;153784.38;5047598;28;20801;-86
2022/12/24 10:18:12;;;;;;;7.30;2.60;;;;;;;9.44;100.00;153784.38;5052103;28;20938;-85
2022/12/24 10:21:01;;;;;;;5.13;2.50;;;;;;;9.43;100.00;153781.75;5049506;28;20594;-85
2022/12/24 10:23:50;;;;;;;10.80;3.70;;;;;;;9.42;100.00;153779.22;5050027;28;20447;-85
2022/12/24 10:26:40;;;;;;;6.43;3.10;;;;;;;9.43;100.00;153781.75;5042939;28;20481;-84
2022/12/24 10:29:28;;;;;;;5.77;3.07;;;;;;;9.44;100.00;153783.06;5045101;28;20461;-85
2022/12/24 10:32:19;;;;;;;8.47;3.50;;;;;;;9.44;100.00;153783.06;5044354;28;20685;-85
2022/12/24 10:35:11;;;;;;;7.33;4.10;;;;;;;9.46;100.00;153788.22;5051141;28;20955;-85
2022/12/24 10:37:57;;;;;;;7.33;3.03;;;;;;;9.48;100.00;153793.41;5045846;28;20954;-86
2022/12/24 10:40:44;;;;;;;9.83;3.33;;;;;;;9.47;100.00;153792.13;5049210;28;20462;-85
2022/12/24 10:43:32;;;;;;;8.77;4.47;;;;;;;9.49;100.00;153796.00;5051298;28;20804;-85
2022/12/24 10:46:21;;;;;;;6.50;3.83;;;;;;;9.51;100.00;153802.47;5052069;28;20777;-85
2022/12/24 10:49:18;;;;;;;6.60;3.80;;;;;;;9.52;100.00;153805.06;5048738;28;20435;-85
2022/12/24 10:52:09;;;;;;;5.90;3.43;;;;;;;9.55;100.00;153812.84;5051257;28;20793;-85
2022/12/24 10:55:09;;;;;;;6.70;3.40;;;;;;;9.59;100.00;153823.16;5049004;28;20975;-85
2022/12/24 10:58:02;;;;;;;10.00;4.07;;;;;;;9.63;100.00;153833.53;5046671;28;20458;-85
2022/12/24 11:00:52;;;;;;;8.00;3.33;;;;;;;9.66;100.00;153841.25;5046679;28;20451;-85
2022/12/24 11:03:38;;;;;;;8.97;3.10;;;;;;;9.68;100.00;153846.47;5052114;28;20419;-85
2022/12/24 11:06:24;;;;;;;8.00;2.30;;;;;;;9.70;100.00;153851.63;5071018;28;20451;-85
2022/12/24 11:09:21;;;;;;;7.60;2.90;;;;;;;9.73;100.00;153859.41;5049926;28;20430;-85
2022/12/24 11:12:16;;;;;;;4.43;2.23;;;;;;;9.74;100.00;153861.97;5046167;28;20542;-85
2022/12/24 11:15:04;;;;;;;6.67;2.57;;;;;;;9.81;100.00;153878.81;5049538;28;20950;-85
2022/12/24 11:17:55;;;;;;;7.07;2.90;;;;;;;9.85;100.00;153887.88;5057256;28;20591;-85
2022/12/24 11:20:58;;;;;;;4.90;3.00;;;;;;;9.88;100.00;153895.59;5041843;28;20452;-85
2022/12/24 11:23:51;;;;;;;6.03;2.63;;;;;;;9.90;100.00;153900.81;5047785;28;20902;-85
2022/12/24 11:26:44;;;;;;;6.33;2.60;;;;;;;9.95;100.00;153913.75;5051111;28;20863;-85
2022/12/24 11:29:50;;;;;;;6.87;2.23;;;;;;;10.00;100.00;153928.00;5051253;28;20463;-85
2022/12/24 11:33:27;;;;;;;;;;;;;;;;;;;;;
2022/12/24 11:36:27;;;;;;;6.40;1.80;;;;;;;9.95;100.00;153915.06;4982746;28;20466;-85
2022/12/24 11:39:31;;;;;;;5.13;2.33;;;;;;;9.99;100.00;153924.09;4954172;28;20870;-85
2022/12/24 11:42:27;;;;;;;4.27;1.80;;;;;;;10.00;100.00;153926.69;4970537;28;20475;-85
2022/12/24 11:45:27;;;;;;;5.60;2.10;;;;;;;10.00;100.00;153926.69;4987830;28;20455;-85
2022/12/24 11:48:25;;;;;;;5.10;2.00;;;;;;;10.01;100.00;153930.56;4955048;29;20440;-84
2022/12/24 11:51:22;;;;;;;3.13;1.97;;;;;;;10.08;100.00;153947.41;4982773;28;20527;-85
2022/12/24 11:54:13;;;;;;;4.47;2.40;;;;;;;10.10;100.00;153953.88;4980069;28;20475;-84
2022/12/24 11:57:01;;;;;;;4.90;1.90;;;;;;;10.16;100.00;153969.47;4976218;28;20995;-84
2022/12/24 11:59:48;;;;;;;11.20;3.30;;;;;;;10.22;100.00;153983.66;4959751;28;20449;-84
2022/12/24 12:02:37;;;;;;;4.10;2.30;;;;;;;10.28;100.00;154000.50;4992481;28;20522;-84
2022/12/24 12:05:25;;;;;;;5.13;2.10;;;;;;;10.32;100.00;154009.59;4975691;28;20443;-84
2022/12/24 12:08:15;;;;;;;6.80;2.33;;;;;;;10.34;100.00;154014.75;4968940;28;21032;-85
2022/12/24 12:11:02;;;;;;;5.50;2.03;;;;;;;10.35;100.00;154017.38;4983879;28;20453;-85
2022/12/24 12:13:48;;;;;;;5.07;2.30;;;;;;;10.39;100.00;154027.69;4983386;28;20459;-85
2022/12/24 12:19:42;;;;;;;4.80;2.03;;;;;;;10.51;100.00;154058.75;4986824;28;20913;-85
2022/12/24 12:22:31;;;;;;;4.20;1.90;;;;;;;10.58;100.00;154076.91;4976826;28;20497;-85
2022/12/24 12:25:22;;;;;;;8.27;2.03;;;;;;;10.68;100.00;154102.78;4967640;28;20434;-85
2022/12/24 12:28:13;;;;;;;6.63;3.03;;;;;;;10.73;100.00;154115.75;4974978;28;20830;-84
2022/12/24 12:31:03;;;;;;;5.03;2.00;;;;;;;10.75;100.00;154119.66;4982255;28;20547;-84
2022/12/24 12:33:53;;;;;;;8.00;2.37;;;;;;;10.72;100.00;154111.88;4972807;28;21020;-85
2022/12/24 12:36:42;;;;;;;10.23;2.20;;;;;;;10.72;100.00;154113.13;4972889;28;20538;-85
2022/12/24 12:39:27;;;;;;;4.27;1.80;;;;;;;10.70;100.00;154107.97;4974684;28;20834;-85
2022/12/24 12:42:18;;;;;;;4.10;2.13;;;;;;;10.73;100.00;154115.75;4970763;28;20831;-85
2022/12/24 12:45:25;;;;;;;4.30;1.67;;;;;;;10.75;100.00;154120.91;4975139;28;20523;-85
2022/12/24 12:48:24;;;;;;;5.03;2.03;;;;;;;10.74;100.00;154117.03;4975317;28;20466;-85
2022/12/24 12:51:15;;;;;;;5.70;2.47;;;;;;;10.72;100.00;154113.13;4979736;28;20458;-85
2022/12/24 12:54:15;;;;;;;3.37;1.73;;;;;;;10.74;100.00;154118.34;4976755;28;20459;-85
2022/12/24 12:57:04;;;;;;;8.70;1.97;;;;;;;10.72;100.00;154113.13;4969941;28;20864;-85
2022/12/24 12:59:52;;;;;;;5.10;2.07;;;;;;;10.69;100.00;154105.41;4976994;28;21040;-85
2022/12/24 13:02:54;;;;;;;5.80;1.90;;;;;;;10.70;100.00;154106.66;4975797;28;20549;-85
2022/12/24 13:06:26;;;;;;;6.70;2.60;;;;;;;10.69;100.00;154104.09;4966804;28;20440;-85
2022/12/24 13:09:35;;;;;;;4.83;2.40;;;;;;;10.71;100.00;154110.56;4913191;29;20436;-85
2022/12/24 13:12:36;;;;;;;5.00;2.10;;;;;;;10.73;100.00;154115.75;4912329;29;20491;-84
2022/12/24 13:15:32;;;;;;;7.73;2.10;;;;;;;10.74;100.00;154117.03;4974786;28;20572;-85